Time;durP1;ratioP1;P1;durP2;ratioP2;P2;SDS_P1;SDS_P2;PMS_P1;PMS_P2;Temp;Humidity;BMP_temperature;BMP_pressure;BME280_temperature;BME280_humidity;BME280_pressure;Samples;Min_cycle;Max_cycle;Signal;HPM_P1;HPM_P2
2022/03/21 00:01:51;;;;;;;0.10;0.10;;;;;;;24.40;52.97;104365.47;5093069;28;20509;-69
2022/03/21 00:04:17;;;;;;;0.68;0.20;;;;;;;24.45;53.52;104358.56;5092765;28;20476;-71
2022/03/21 00:06:42;;;;;;;0.22;0.10;;;;;;;24.37;52.84;104371.22;5092994;28;20031;-70
2022/03/21 00:09:07;;;;;;;0.88;0.10;;;;;;;24.36;53.45;104358.47;5092734;28;20110;-70
2022/03/21 00:11:33;;;;;;;0.30;0.20;;;;;;;24.34;53.09;104360.44;5092681;28;20028;-71
2022/03/21 00:13:58;;;;;;;0.10;0.00;;;;;;;24.37;53.29;104349.22;5093157;28;20023;-70
2022/03/21 00:16:24;;;;;;;0.47;0.10;;;;;;;24.29;52.91;104349.84;5091207;28;20508;-71
2022/03/21 00:18:49;;;;;;;0.38;0.05;;;;;;;24.28;53.09;104354.44;5092813;28;20103;-70
2022/03/21 00:21:16;;;;;;;0.20;0.20;;;;;;;24.32;53.95;104346.84;5092594;28;20478;-68
2022/03/21 00:23:41;;;;;;;0.00;0.00;;;;;;;24.38;53.70;104340.84;5090764;28;20016;-72
2022/03/21 00:26:07;;;;;;;0.10;0.00;;;;;;;24.29;53.63;104339.72;5072291;28;20024;-67
2022/03/21 00:28:32;;;;;;;0.22;0.10;;;;;;;24.34;53.96;104339.31;5071266;28;20098;-70
2022/03/21 00:30:57;;;;;;;0.08;0.00;;;;;;;24.33;53.55;104353.22;5072211;28;20162;-71
2022/03/21 00:33:22;;;;;;;0.85;0.15;;;;;;;24.30;53.71;104344.22;5088528;28;20038;-70
2022/03/21 00:35:51;;;;;;;0.32;0.10;;;;;;;24.28;53.07;104346.19;5092571;28;20035;-70
2022/03/21 00:38:18;;;;;;;0.10;0.00;;;;;;;24.28;53.53;104337.06;5092576;28;20050;-70
2022/03/21 00:40:45;;;;;;;0.22;0.10;;;;;;;24.23;52.92;104342.97;5092578;28;20024;-70
2022/03/21 00:43:15;;;;;;;0.35;0.05;;;;;;;24.25;53.26;104332.69;5092440;28;20024;-71
2022/03/21 00:45:40;;;;;;;0.28;0.10;;;;;;;24.27;53.77;104349.06;5092491;28;20024;-70
2022/03/21 00:48:05;;;;;;;0.10;0.10;;;;;;;24.26;52.94;104334.44;5092279;28;20031;-70
2022/03/21 00:50:31;;;;;;;0.20;0.10;;;;;;;24.29;53.20;104331.47;5092121;28;20031;-69
2022/03/21 00:52:57;;;;;;;2.67;0.52;;;;;;;24.22;52.73;104330.22;5092451;28;20074;-69
2022/03/21 00:55:26;;;;;;;0.10;0.10;;;;;;;24.25;52.96;104329.06;5074814;28;20107;-71
2022/03/21 00:57:52;;;;;;;0.22;0.10;;;;;;;24.18;52.74;104328.69;5072265;28;20035;-69
2022/03/21 01:00:20;;;;;;;1.02;0.22;;;;;;;24.22;53.21;104327.47;5071811;28;20028;-66
2022/03/21 01:02:46;;;;;;;0.10;0.10;;;;;;;24.24;53.05;104322.69;5072158;28;20074;-71
2022/03/21 01:05:12;;;;;;;0.80;0.20;;;;;;;24.23;52.54;104331.97;5070742;28;20031;-69
2022/03/21 01:07:39;;;;;;;0.20;0.10;;;;;;;24.19;52.22;104322.22;5071865;28;20107;-70
2022/03/21 01:10:06;;;;;;;0.75;0.15;;;;;;;24.20;52.51;104321.22;5070550;28;20028;-71
2022/03/21 01:12:32;;;;;;;0.50;0.10;;;;;;;24.25;53.52;104318.94;5071896;28;20051;-70
2022/03/21 01:14:58;;;;;;;0.30;0.20;;;;;;;24.25;53.51;104318.94;5071994;28;20103;-71
2022/03/21 01:17:23;;;;;;;0.10;0.10;;;;;;;24.22;52.60;104319.22;5071789;28;20142;-71
2022/03/21 01:19:49;;;;;;;0.45;0.10;;;;;;;24.21;53.25;104308.34;5072002;28;20527;-70
2022/03/21 01:22:14;;;;;;;0.98;0.20;;;;;;;24.23;53.80;104315.47;5072026;28;20024;-70
2022/03/21 01:24:39;;;;;;;0.40;0.20;;;;;;;24.19;53.39;104313.97;5083768;28;20059;-70
2022/03/21 01:27:05;;;;;;;0.77;0.20;;;;;;;24.20;53.32;104310.22;5092098;28;20494;-68
2022/03/21 01:29:31;;;;;;;2.10;0.10;;;;;;;24.26;53.47;104314.31;5090375;28;20058;-72
2022/03/21 01:31:57;;;;;;;1.25;0.20;;;;;;;24.20;52.75;104318.47;5091915;28;20127;-70
2022/03/21 01:34:22;;;;;;;0.30;0.13;;;;;;;24.19;52.45;104308.47;5091745;28;20123;-71
2022/03/21 01:36:47;;;;;;;1.35;0.10;;;;;;;24.19;53.77;104308.47;5092156;28;20035;-72
2022/03/21 01:39:13;;;;;;;0.45;0.20;;;;;;;24.13;53.17;104303.47;5093810;28;20042;-70
2022/03/21 01:41:38;;;;;;;0.90;0.15;;;;;;;24.23;53.26;104304.47;5095628;28;20031;-72
2022/03/21 01:44:06;;;;;;;0.45;0.10;;;;;;;24.14;52.52;104301.59;5094386;28;20028;-70
2022/03/21 01:46:32;;;;;;;1.08;0.10;;;;;;;24.23;53.36;104301.72;5095426;28;20028;-69
2022/03/21 01:48:58;;;;;;;2.30;0.10;;;;;;;24.18;52.67;104298.44;5095362;28;20486;-70
2022/03/21 01:51:27;;;;;;;0.20;0.13;;;;;;;24.18;52.27;104301.19;5095216;28;20072;-69
2022/03/21 01:56:42;;;;;;;0.43;0.10;;;;;;;24.10;52.56;104303.72;5075071;28;20040;-72
2022/03/21 01:59:09;;;;;;;0.10;0.10;;;;;;;24.11;52.90;104294.47;5073842;28;20028;-68
2022/03/21 02:01:35;;;;;;;0.90;0.13;;;;;;;24.13;52.87;104299.84;5075008;28;20056;-71
2022/03/21 02:04:00;;;;;;;0.20;0.10;;;;;;;24.20;54.05;104296.47;5074977;28;20072;-70
2022/03/21 02:06:28;;;;;;;1.50;0.20;;;;;;;24.13;52.49;104297.09;5075867;28;20472;-71
2022/03/21 02:08:58;;;;;;;0.20;0.10;;;;;;;24.17;52.44;104301.31;5074984;28;20028;-72
2022/03/21 02:11:26;;;;;;;0.00;0.00;;;;;;;24.08;52.85;104292.00;5074512;28;20028;-70
2022/03/21 02:13:58;;;;;;;0.35;0.15;;;;;;;24.20;53.80;104295.59;5073569;28;20031;-70
2022/03/21 02:16:28;;;;;;;1.95;0.20;;;;;;;24.10;52.66;104292.72;5074437;28;20044;-73
2022/03/21 02:18:54;;;;;;;0.05;0.05;;;;;;;24.16;53.25;104292.22;5074762;28;20383;-71
2022/03/21 02:21:24;;;;;;;0.40;0.10;;;;;;;24.15;53.41;104295.09;5074517;28;20028;-71
2022/03/21 02:24:01;;;;;;;0.10;0.10;;;;;;;24.17;53.74;104295.81;5077913;28;20028;-72
2022/03/21 02:26:28;;;;;;;0.52;0.10;;;;;;;24.15;54.25;104282.22;5094516;28;20020;-70
2022/03/21 02:28:55;;;;;;;0.55;0.20;;;;;;;24.17;53.86;104282.09;5094661;28;20028;-71
2022/03/21 02:31:21;;;;;;;1.33;0.20;;;;;;;24.12;52.86;104268.72;5094165;28;20127;-69
2022/03/21 02:33:48;;;;;;;0.20;0.10;;;;;;;24.10;53.10;104264.38;5094775;28;20483;-70
2022/03/21 02:36:16;;;;;;;0.63;0.30;;;;;;;24.15;54.18;104262.97;5094387;28;20024;-71
2022/03/21 02:38:41;;;;;;;0.85;0.20;;;;;;;24.11;52.92;104258.75;5094544;28;20023;-72
2022/03/21 02:41:07;;;;;;;0.20;0.20;;;;;;;24.17;52.39;104260.97;5094513;28;20417;-70
2022/03/21 02:43:48;;;;;;;0.20;0.10;;;;;;;24.11;52.81;104257.88;5094329;28;20055;-72
2022/03/21 02:46:13;;;;;;;0.57;0.20;;;;;;;24.08;52.89;104256.25;5092882;28;20106;-71
2022/03/21 02:48:40;;;;;;;0.65;0.15;;;;;;;24.07;52.90;104254.50;5088421;28;20045;-70
2022/03/21 02:51:07;;;;;;;0.20;0.10;;;;;;;24.06;51.99;104263.75;5073097;28;20030;-72
2022/03/21 02:53:35;;;;;;;0.38;0.10;;;;;;;24.09;53.34;104251.63;5073887;28;20257;-71
2022/03/21 02:56:00;;;;;;;0.10;0.10;;;;;;;24.10;53.56;104253.38;5073989;28;20017;-70
2022/03/21 02:58:25;;;;;;;0.88;0.13;;;;;;;24.08;52.20;104248.00;5073719;28;20028;-72
2022/03/21 03:00:51;;;;;;;0.43;0.20;;;;;;;24.13;53.36;104248.47;5073953;28;20016;-71
2022/03/21 03:03:16;;;;;;;0.10;0.10;;;;;;;24.08;52.80;104249.88;5073702;28;20029;-70
2022/03/21 03:05:41;;;;;;;0.30;0.10;;;;;;;24.10;52.07;104250.63;5073807;28;20016;-71
2022/03/21 03:08:07;;;;;;;0.55;0.10;;;;;;;24.11;53.34;104247.75;5073516;28;20408;-69
2022/03/21 03:10:32;;;;;;;0.25;0.20;;;;;;;24.08;52.65;104245.25;5073407;28;20029;-72
2022/03/21 03:12:57;;;;;;;0.22;0.20;;;;;;;24.11;52.90;104245.00;5073697;28;20063;-71
2022/03/21 03:15:23;;;;;;;1.40;0.30;;;;;;;24.13;53.10;104248.47;5073257;28;20028;-71
2022/03/21 03:17:48;;;;;;;0.55;0.20;;;;;;;24.10;53.70;104247.88;5073545;28;20383;-73
2022/03/21 03:20:14;;;;;;;1.88;0.20;;;;;;;24.10;52.76;104254.25;5091591;28;20032;-70
2022/03/21 03:22:40;;;;;;;0.22;0.17;;;;;;;24.15;53.53;104246.47;5094222;28;20032;-70
2022/03/21 03:25:06;;;;;;;0.10;0.10;;;;;;;24.07;52.53;104238.00;5093678;28;20073;-73
2022/03/21 03:27:32;;;;;;;0.68;0.17;;;;;;;24.07;53.14;104249.00;5093364;28;20093;-70
2022/03/21 03:29:58;;;;;;;0.13;0.10;;;;;;;24.04;52.76;104246.53;5093495;28;20634;-71
2022/03/21 03:32:25;;;;;;;0.40;0.30;;;;;;;24.01;52.03;104238.50;5093036;28;20048;-71
2022/03/21 03:34:50;;;;;;;0.10;0.10;;;;;;;24.10;54.73;104247.88;5093466;28;20079;-70
2022/03/21 03:37:16;;;;;;;0.22;0.10;;;;;;;24.02;52.22;104245.78;5093327;28;20056;-72
2022/03/21 03:39:42;;;;;;;0.30;0.20;;;;;;;24.02;52.39;104245.78;5093364;28;20024;-71
2022/03/21 03:42:07;;;;;;;1.83;0.15;;;;;;;24.01;53.29;104246.75;5093257;28;20024;-71
2022/03/21 03:44:33;;;;;;;0.75;0.22;;;;;;;24.01;53.03;104244.88;5093122;28;20099;-72
2022/03/21 03:46:58;;;;;;;1.15;0.10;;;;;;;24.00;52.75;104240.38;5093282;28;20253;-70
2022/03/21 03:49:23;;;;;;;0.35;0.10;;;;;;;24.00;52.38;104237.63;5078902;28;20403;-72
2022/03/21 03:51:49;;;;;;;1.52;0.20;;;;;;;24.04;52.27;104243.78;5072746;28;20036;-71
2022/03/21 03:54:14;;;;;;;0.20;0.20;;;;;;;24.06;52.28;104232.66;5072669;28;20481;-71
2022/03/21 03:56:39;;;;;;;0.20;0.10;;;;;;;24.01;52.83;104233.88;5072724;28;20028;-72
2022/03/21 03:59:05;;;;;;;0.20;0.20;;;;;;;24.01;52.50;104244.88;5072834;28;20371;-69
2022/03/21 04:01:30;;;;;;;0.00;0.00;;;;;;;24.05;52.95;104228.16;5072433;28;20020;-69
2022/03/21 04:03:59;;;;;;;0.50;0.20;;;;;;;24.05;52.74;104228.16;5072798;28;20048;-70
2022/03/21 04:06:25;;;;;;;0.75;0.10;;;;;;;24.09;53.36;104202.13;5072428;28;20035;-71
2022/03/21 04:08:52;;;;;;;0.03;0.03;;;;;;;24.03;53.99;104246.66;5075315;28;20052;-71
2022/03/21 04:11:18;;;;;;;0.63;0.10;;;;;;;24.00;52.78;104261.50;5092853;28;20063;-69
2022/03/21 04:13:44;;;;;;;0.47;0.20;;;;;;;24.04;52.71;104257.50;5092931;28;20592;-70
2022/03/21 04:16:09;;;;;;;0.47;0.20;;;;;;;24.07;53.68;104250.88;5091246;28;20031;-73
2022/03/21 04:18:35;;;;;;;0.93;0.20;;;;;;;23.98;52.96;104260.75;5092913;28;20024;-69
2022/03/21 04:21:01;;;;;;;1.27;0.32;;;;;;;23.99;53.02;104246.00;5091490;28;20030;-71
2022/03/21 04:23:27;;;;;;;0.60;0.20;;;;;;;23.99;52.44;104213.91;5092563;28;20020;-73
2022/03/21 04:25:52;;;;;;;0.80;0.10;;;;;;;24.00;53.03;104223.00;5092718;28;20098;-70
2022/03/21 04:28:18;;;;;;;0.70;0.13;;;;;;;23.93;53.06;104219.91;5092590;28;20020;-70
2022/03/21 04:30:44;;;;;;;0.15;0.10;;;;;;;23.97;52.64;104221.41;5092534;28;20020;-69
2022/03/21 04:33:10;;;;;;;0.43;0.20;;;;;;;23.98;52.89;104209.41;5092346;28;20071;-71
2022/03/21 04:35:37;;;;;;;1.27;0.13;;;;;;;23.94;52.22;104215.28;5092404;28;20475;-73
2022/03/21 04:38:03;;;;;;;0.50;0.13;;;;;;;23.99;52.29;104207.53;5081172;28;20028;-71
2022/03/21 04:40:29;;;;;;;0.35;0.10;;;;;;;23.97;52.82;104209.53;5072425;28;20037;-71
2022/03/21 04:42:54;;;;;;;0.10;0.10;;;;;;;23.96;51.92;104202.28;5072674;28;20070;-72
2022/03/21 04:45:20;;;;;;;0.20;0.10;;;;;;;23.96;52.19;104203.16;5072072;28;20028;-72
2022/03/21 04:47:45;;;;;;;0.65;0.17;;;;;;;23.95;52.34;104200.53;5072404;28;20060;-70
2022/03/21 04:50:12;;;;;;;0.40;0.10;;;;;;;23.94;52.00;104216.16;5071907;28;20094;-70
2022/03/21 04:52:37;;;;;;;0.85;0.40;;;;;;;23.87;51.39;104209.44;5072036;28;20024;-70
2022/03/21 04:55:03;;;;;;;0.50;0.10;;;;;;;23.99;52.64;104202.03;5072189;28;20108;-72
2022/03/21 04:57:30;;;;;;;0.55;0.20;;;;;;;24.02;52.60;104207.28;5072024;28;20082;-71
2022/03/21 04:59:56;;;;;;;0.20;0.10;;;;;;;23.94;52.20;104207.03;5072213;28;20058;-72
2022/03/21 05:02:21;;;;;;;0.03;0.03;;;;;;;23.90;51.08;104180.84;5071791;28;20040;-71
2022/03/21 05:04:47;;;;;;;0.00;0.00;;;;;;;24.01;51.12;104219.25;5072158;28;20021;-71
2022/03/21 05:07:16;;;;;;;0.15;0.15;;;;;;;24.13;51.31;104220.13;5077764;28;20034;-70
2022/03/21 05:09:42;;;;;;;1.35;0.20;;;;;;;24.18;51.11;104213.22;5081703;28;20028;-72
2022/03/21 05:12:08;;;;;;;0.47;0.10;;;;;;;24.18;49.74;104235.22;5071876;28;20515;-70
2022/03/21 05:14:34;;;;;;;0.40;0.20;;;;;;;24.21;50.96;104229.47;5074447;28;20021;-72
2022/03/21 05:17:01;;;;;;;0.52;0.20;;;;;;;;;;5075968;28;20040;-70
2022/03/21 05:19:27;;;;;;;0.30;0.15;;;;;;;24.22;50.16;104194.59;5075690;28;20467;-71
2022/03/21 05:21:53;;;;;;;0.08;0.00;;;;;;;24.25;51.08;104197.09;5075887;28;20066;-72
2022/03/21 05:32:30;;;;;;;0.25;0.10;;;;;;;24.32;49.76;104202.97;5075282;28;20517;-72
2022/03/21 05:37:39;;;;;;;0.40;0.10;;;;;;;24.37;50.33;104207.09;5085668;28;20425;-70
2022/03/21 05:42:48;;;;;;;0.98;0.17;;;;;;;24.30;48.54;104212.22;5096047;28;20401;-70
2022/03/21 05:45:19;;;;;;;0.22;0.08;;;;;;;24.41;48.84;104204.94;5095533;28;20464;-69
2022/03/21 05:50:36;;;;;;;0.00;0.00;;;;;;;24.45;48.57;104198.16;5095755;28;20093;-70
2022/03/21 05:53:03;;;;;;;0.20;0.10;;;;;;;24.38;48.77;104207.97;5095442;28;20483;-71
2022/03/21 05:55:30;;;;;;;0.55;0.17;;;;;;;24.37;48.48;104200.72;5095222;28;20028;-70
2022/03/21 05:57:56;;;;;;;0.10;0.10;;;;;;;24.37;47.38;104201.59;5095473;28;20020;-71
2022/03/21 06:00:21;;;;;;;0.65;0.10;;;;;;;24.42;50.10;104196.56;5075012;28;20056;-68
2022/03/21 06:02:48;;;;;;;0.20;0.08;;;;;;;24.41;49.16;104197.56;5072995;28;20063;-65
2022/03/21 06:05:13;;;;;;;0.00;0.00;;;;;;;24.45;49.66;104199.03;5074876;28;20020;-72
2022/03/21 06:07:38;;;;;;;0.08;0.08;;;;;;;24.47;50.00;104197.03;5086006;28;20129;-70
2022/03/21 06:10:04;;;;;;;0.20;0.10;;;;;;;24.50;49.32;104201.38;5070631;28;20536;-66
2022/03/21 06:12:30;;;;;;;0.20;0.20;;;;;;;24.52;49.00;104193.88;5071225;28;20379;-66
2022/03/21 06:14:56;;;;;;;0.03;0.00;;;;;;;24.42;48.82;104199.31;5057026;28;20112;-65
2022/03/21 06:17:21;;;;;;;0.30;0.03;;;;;;;24.50;49.93;104190.38;5056213;28;20052;-67
2022/03/21 06:19:46;;;;;;;0.15;0.10;;;;;;;24.47;47.56;104186.03;5072587;28;20050;-66
2022/03/21 06:22:12;;;;;;;0.20;0.10;;;;;;;24.44;48.81;104189.03;5074412;28;20363;-65
2022/03/21 06:24:37;;;;;;;0.43;0.05;;;;;;;24.44;50.02;104190.91;5060823;28;20025;-66
2022/03/21 06:27:02;;;;;;;0.63;0.00;;;;;;;24.47;49.50;104191.53;5066761;28;20032;-63
2022/03/21 06:29:28;;;;;;;1.45;0.15;;;;;;;24.49;49.59;104197.75;5074151;28;20021;-64
2022/03/21 06:31:53;;;;;;;0.40;0.10;;;;;;;24.46;48.84;104194.41;5067426;28;20037;-64
2022/03/21 06:34:18;;;;;;;0.95;0.10;;;;;;;24.51;51.20;104197.63;5065777;28;20041;-63
2022/03/21 06:36:44;;;;;;;0.75;0.13;;;;;;;24.59;50.88;104200.59;5073070;28;20496;-64
2022/03/21 06:39:09;;;;;;;0.43;0.30;;;;;;;24.56;50.11;104200.88;5059207;28;20024;-65
2022/03/21 06:41:34;;;;;;;0.93;0.10;;;;;;;24.56;51.11;104200.88;5058472;28;20037;-64
2022/03/21 06:44:00;;;;;;;0.93;0.20;;;;;;;24.54;50.06;104202.88;5059250;28;20024;-65
2022/03/21 06:46:25;;;;;;;0.22;0.10;;;;;;;24.57;50.02;104203.50;5073747;28;20028;-64
2022/03/21 06:48:50;;;;;;;0.47;0.32;;;;;;;24.49;49.27;104205.13;5071990;28;20028;-65
2022/03/21 06:51:16;;;;;;;0.30;0.20;;;;;;;24.48;49.90;104198.75;5055853;28;20408;-65
2022/03/21 06:53:41;;;;;;;0.25;0.20;;;;;;;24.58;49.42;104204.34;5052806;28;20021;-64
2022/03/21 06:56:07;;;;;;;0.10;0.10;;;;;;;24.51;50.00;104197.63;5053807;28;20025;-65
2022/03/21 06:58:32;;;;;;;0.20;0.15;;;;;;;24.47;50.00;104204.41;5053786;28;20559;-64
2022/03/21 07:00:57;;;;;;;0.80;0.15;;;;;;;24.51;49.10;104208.63;5054015;28;20025;-64
2022/03/21 07:03:24;;;;;;;2.05;0.20;;;;;;;24.56;50.44;104206.38;5065584;28;20150;-65
2022/03/21 07:05:49;;;;;;;0.60;0.13;;;;;;;24.52;50.59;104215.88;5073901;28;20026;-65
2022/03/21 07:08:14;;;;;;;0.20;0.20;;;;;;;24.56;49.86;104212.75;5091689;28;20024;-67
2022/03/21 07:10:40;;;;;;;0.73;0.20;;;;;;;24.48;50.15;104209.78;5093793;28;20028;-67
2022/03/21 07:13:07;;;;;;;0.20;0.17;;;;;;;24.54;49.07;104209.25;5093849;28;20028;-65
2022/03/21 07:15:32;;;;;;;0.28;0.20;;;;;;;24.59;49.46;104214.34;5093379;28;20028;-67
2022/03/21 07:17:59;;;;;;;0.38;0.10;;;;;;;24.61;49.55;104209.59;5092640;28;20026;-67
2022/03/21 07:20:28;;;;;;;1.23;0.17;;;;;;;24.59;49.11;104206.09;5092142;28;20467;-65
2022/03/21 07:22:54;;;;;;;0.15;0.10;;;;;;;24.58;50.57;104209.84;5093823;28;20055;-68
2022/03/21 07:25:20;;;;;;;1.40;0.10;;;;;;;24.63;49.01;104207.56;5076431;28;20028;-66
2022/03/21 07:27:46;;;;;;;0.20;0.15;;;;;;;24.56;48.97;104200.88;5054376;28;20097;-65
2022/03/21 07:30:12;;;;;;;0.63;0.35;;;;;;;24.53;49.61;104198.38;5067797;28;20376;-65
2022/03/21 07:32:42;;;;;;;0.28;0.25;;;;;;;24.52;49.17;104202.13;5073057;28;20454;-65
2022/03/21 07:35:08;;;;;;;0.20;0.20;;;;;;;24.43;48.48;104198.31;5073073;28;20430;-66
2022/03/21 07:37:49;;;;;;;0.38;0.10;;;;;;;24.49;49.18;104194.13;5084716;28;20031;-65
2022/03/21 07:40:15;;;;;;;0.70;0.20;;;;;;;24.50;48.09;104195.88;5074466;28;20060;-65
2022/03/21 07:42:42;;;;;;;0.20;0.10;;;;;;;24.50;48.76;104196.75;5073379;28;20070;-66
2022/03/21 07:47:54;;;;;;;0.90;0.10;;;;;;;24.48;48.48;104198.75;5072973;28;20071;-65
2022/03/21 07:50:20;;;;;;;0.45;0.15;;;;;;;24.39;47.85;104199.56;5072411;28;20036;-66
2022/03/21 07:52:47;;;;;;;0.63;0.20;;;;;;;24.46;48.04;104199.91;5073979;28;20476;-65
2022/03/21 07:55:12;;;;;;;1.02;0.15;;;;;;;24.42;48.32;104203.94;5083179;28;20020;-65
2022/03/21 07:57:38;;;;;;;0.30;0.20;;;;;;;24.42;47.10;104192.94;5072793;28;20068;-65
2022/03/21 08:00:05;;;;;;;0.28;0.10;;;;;;;24.47;48.03;104191.53;5072785;28;20056;-65
2022/03/21 08:02:30;;;;;;;0.10;0.10;;;;;;;24.47;46.79;104196.16;5072618;28;20028;-66
2022/03/21 08:04:55;;;;;;;0.20;0.10;;;;;;;24.42;46.95;104192.94;5072832;28;20020;-65
2022/03/21 08:07:21;;;;;;;0.10;0.10;;;;;;;24.51;47.96;104198.50;5082591;28;20028;-65
2022/03/21 08:09:49;;;;;;;0.17;0.08;;;;;;;24.48;47.35;104198.75;5092949;28;20027;-66
2022/03/21 08:12:14;;;;;;;0.20;0.20;;;;;;;24.48;47.06;104197.88;5092560;28;20067;-65
2022/03/21 08:14:39;;;;;;;0.20;0.13;;;;;;;24.51;48.03;104194.88;5092283;28;20060;-65
2022/03/21 08:17:05;;;;;;;0.30;0.10;;;;;;;24.48;47.97;104197.88;5092879;28;20080;-65
2022/03/21 08:19:30;;;;;;;0.10;0.10;;;;;;;24.53;47.64;104190.13;5092663;28;20028;-65
2022/03/21 08:21:55;;;;;;;0.40;0.22;;;;;;;24.54;48.54;104187.25;5091506;28;20031;-66
2022/03/21 08:24:24;;;;;;;0.10;0.10;;;;;;;24.50;47.96;104185.75;5092464;28;20100;-65
2022/03/21 08:26:50;;;;;;;0.10;0.10;;;;;;;24.48;47.72;104197.88;5092723;28;20028;-64
2022/03/21 08:29:15;;;;;;;0.30;0.05;;;;;;;24.48;46.95;104195.16;5092565;28;20024;-66
2022/03/21 08:31:42;;;;;;;0.10;0.10;;;;;;;24.50;46.47;104195.88;5092419;28;20478;-65
2022/03/21 08:34:07;;;;;;;0.30;0.15;;;;;;;24.53;48.18;104195.66;5092374;28;20034;-65
2022/03/21 08:36:32;;;;;;;0.40;0.20;;;;;;;24.61;47.66;104193.09;5088702;28;20028;-65
2022/03/21 08:38:59;;;;;;;0.10;0.10;;;;;;;24.46;46.31;104194.41;5072400;28;20487;-64
2022/03/21 08:41:25;;;;;;;0.35;0.20;;;;;;;24.45;46.94;104195.41;5072412;28;20028;-65
2022/03/21 08:43:50;;;;;;;0.30;0.10;;;;;;;24.50;47.10;104193.13;5072355;28;20028;-65
2022/03/21 08:46:15;;;;;;;0.20;0.20;;;;;;;24.51;47.10;104192.13;5072100;28;20052;-66
2022/03/21 08:51:25;;;;;;;0.10;0.10;;;;;;;24.46;47.07;104191.66;5076037;28;20047;-65
2022/03/21 08:53:51;;;;;;;0.20;0.10;;;;;;;24.50;47.84;104193.13;5076295;28;20471;-65
2022/03/21 08:56:17;;;;;;;0.90;0.20;;;;;;;24.52;47.36;104199.38;5075989;28;20029;-66
2022/03/21 08:58:42;;;;;;;0.88;0.20;;;;;;;24.50;46.38;104182.13;5076674;28;20024;-65
2022/03/21 09:01:08;;;;;;;0.88;0.20;;;;;;;24.49;48.06;104189.50;5074914;28;20036;-65
2022/03/21 09:03:33;;;;;;;1.00;0.20;;;;;;;24.53;46.45;104185.50;5076086;28;20499;-65
2022/03/21 09:05:58;;;;;;;0.10;0.10;;;;;;;24.54;46.64;104197.38;5076204;28;20028;-65
2022/03/21 09:08:23;;;;;;;0.10;0.10;;;;;;;24.49;45.81;104194.13;5094284;28;20110;-66
2022/03/21 09:10:49;;;;;;;0.55;0.10;;;;;;;24.49;46.31;104194.13;5096257;28;20466;-65
2022/03/21 09:13:15;;;;;;;0.25;0.10;;;;;;;24.53;46.95;104195.66;5096018;28;20020;-66
2022/03/21 09:15:42;;;;;;;0.98;0.45;;;;;;;24.57;47.01;104186.09;5096078;28;20027;-66
2022/03/21 09:18:07;;;;;;;0.68;0.30;;;;;;;24.61;46.22;104187.56;5096086;28;20387;-65
2022/03/21 09:20:32;;;;;;;0.95;0.20;;;;;;;24.51;46.12;104187.50;5096328;28;20103;-66
2022/03/21 09:22:58;;;;;;;0.55;0.10;;;;;;;24.57;46.65;104180.59;5096241;28;20058;-65
2022/03/21 09:25:23;;;;;;;0.10;0.10;;;;;;;24.59;46.37;104184.09;5095855;28;20509;-65
2022/03/21 09:27:48;;;;;;;0.10;0.05;;;;;;;24.55;46.12;104183.50;5096009;28;20028;-66
2022/03/21 09:30:14;;;;;;;0.40;0.10;;;;;;;24.50;45.30;104180.25;5092283;28;20035;-65
2022/03/21 09:32:39;;;;;;;0.22;0.15;;;;;;;24.53;46.35;104179.13;5075253;28;20076;-66
2022/03/21 09:35:05;;;;;;;0.20;0.10;;;;;;;24.54;46.04;104180.88;5075426;28;20521;-66
2022/03/21 09:37:32;;;;;;;0.38;0.15;;;;;;;24.52;46.28;104188.38;5075450;28;20026;-65
2022/03/21 09:39:58;;;;;;;0.10;0.10;;;;;;;24.51;46.03;104182.00;5075526;28;20034;-66
2022/03/21 09:42:24;;;;;;;0.20;0.10;;;;;;;24.50;46.68;104180.25;5075085;28;20032;-65
2022/03/21 09:44:53;;;;;;;0.40;0.10;;;;;;;24.55;46.57;104182.63;5075480;28;20024;-65
2022/03/21 09:50:13;;;;;;;0.10;0.10;;;;;;;24.47;44.69;104179.66;5032666;28;20037;-65
2022/03/21 09:52:39;;;;;;;1.23;0.10;;;;;;;24.53;44.74;104181.88;5032551;28;20033;-65
2022/03/21 09:55:07;;;;;;;1.02;0.10;;;;;;;24.43;45.08;104180.94;5032748;28;20120;-66
2022/03/21 09:57:32;;;;;;;0.10;0.10;;;;;;;24.53;45.46;104184.63;5032655;28;20385;-65
2022/03/21 09:59:58;;;;;;;0.00;0.00;;;;;;;24.52;45.15;104183.75;5032609;28;20037;-66
2022/03/21 10:02:24;;;;;;;0.32;0.10;;;;;;;24.53;46.06;104179.13;5015710;28;20037;-65
2022/03/21 10:04:50;;;;;;;0.10;0.10;;;;;;;24.51;46.68;104183.88;5032735;28;20092;-65
2022/03/21 10:07:26;;;;;;;0.03;0.00;;;;;;;24.58;45.46;104182.34;5043336;28;20400;-66
2022/03/21 10:10:20;;;;;;;0.82;0.28;;;;;;;24.51;44.36;104187.50;5035899;28;20079;-65
2022/03/21 10:12:45;;;;;;;0.47;0.10;;;;;;;24.49;45.58;104183.13;4950408;29;20122;-65
2022/03/21 10:15:11;;;;;;;0.22;0.13;;;;;;;24.49;44.97;104185.88;4934894;29;20131;-66
2022/03/21 10:17:37;;;;;;;0.10;0.10;;;;;;;24.56;45.38;104184.38;4934977;29;20040;-67
2022/03/21 10:20:03;;;;;;;0.40;0.13;;;;;;;24.50;44.93;104182.13;4935007;29;20460;-63
2022/03/21 10:22:37;;;;;;;1.10;0.93;;;;;;;24.52;45.07;104182.84;4934554;29;20074;-67
2022/03/21 10:25:02;;;;;;;1.08;0.70;;;;;;;24.49;45.22;104178.50;4934979;29;20142;-67
2022/03/21 10:27:29;;;;;;;1.10;0.50;;;;;;;24.52;45.34;104177.34;4958478;28;20052;-69
2022/03/21 10:30:01;;;;;;;0.57;0.35;;;;;;;24.56;46.75;104167.84;4973682;28;20031;-68
2022/03/21 10:32:35;;;;;;;0.90;0.40;;;;;;;24.60;45.75;104174.84;4972922;28;20061;-66
2022/03/21 10:35:03;;;;;;;0.52;0.30;;;;;;;24.49;45.94;104163.88;4973300;28;20031;-66
2022/03/21 10:37:59;;;;;;;1.33;0.47;;;;;;;24.49;46.25;104172.13;5002998;28;20128;-66
2022/03/21 10:40:43;;;;;;;1.02;0.32;;;;;;;24.42;45.65;104168.19;5010811;28;20038;-67
2022/03/21 10:43:11;;;;;;;0.70;0.50;;;;;;;24.48;45.91;104159.38;5012089;28;20433;-66
2022/03/21 10:45:36;;;;;;;0.52;0.20;;;;;;;24.46;46.05;104155.91;5012007;28;20060;-66
2022/03/21 10:48:05;;;;;;;1.57;0.30;;;;;;;24.52;46.09;104149.84;5014954;28;20449;-65
2022/03/21 10:50:35;;;;;;;0.13;0.08;;;;;;;24.42;45.61;104154.44;5094370;28;20288;-67
2022/03/21 10:53:10;;;;;;;1.50;0.20;;;;;;;24.42;46.45;104149.78;5094066;28;20067;-67
2022/03/21 10:55:37;;;;;;;0.88;0.22;;;;;;;24.45;46.12;104149.53;5093996;28;20034;-68
2022/03/21 10:58:03;;;;;;;0.32;0.13;;;;;;;24.53;46.59;104148.88;5094181;28;20463;-67
2022/03/21 11:00:29;;;;;;;0.47;0.20;;;;;;;24.49;45.91;104144.63;5093892;28;20162;-66
2022/03/21 11:02:58;;;;;;;0.90;0.28;;;;;;;24.48;46.27;104149.25;5094043;28;20028;-65
2022/03/21 11:05:26;;;;;;;0.77;0.10;;;;;;;24.53;45.75;104146.13;5093876;28;20016;-66
2022/03/21 11:07:53;;;;;;;0.90;0.20;;;;;;;24.44;45.92;104141.41;5075253;28;20028;-65
2022/03/21 11:10:20;;;;;;;2.83;0.40;;;;;;;24.48;45.74;104142.88;5073287;28;20424;-65
2022/03/21 11:12:45;;;;;;;0.40;0.30;;;;;;;24.55;46.39;104138.59;5072731;28;20035;-67
2022/03/21 11:15:12;;;;;;;0.20;0.15;;;;;;;24.48;46.65;104131.88;5073228;28;20025;-66
2022/03/21 11:17:40;;;;;;;0.22;0.22;;;;;;;24.49;46.66;104133.63;5073501;28;20024;-66
2022/03/21 11:20:07;;;;;;;0.30;0.20;;;;;;;24.40;44.60;104135.31;5073432;28;20025;-65
2022/03/21 11:22:34;;;;;;;0.13;0.10;;;;;;;24.42;45.10;104121.41;5073106;28;20486;-65
2022/03/21 11:25:04;;;;;;;0.65;0.25;;;;;;;24.44;45.86;104124.91;5073350;28;20108;-66
2022/03/21 11:27:52;;;;;;;0.30;0.10;;;;;;;24.46;45.62;104128.38;5073006;28;20021;-66
2022/03/21 11:30:26;;;;;;;0.52;0.28;;;;;;;24.40;44.77;104120.69;5072873;28;20024;-64
2022/03/21 11:33:04;;;;;;;0.57;0.17;;;;;;;24.42;45.83;104115.91;5072914;28;20047;-66
2022/03/21 11:35:30;;;;;;;0.90;0.20;;;;;;;24.49;45.92;104117.13;5073436;28;20384;-65
2022/03/21 11:38:25;;;;;;;1.00;0.15;;;;;;;24.43;45.14;104117.66;5091864;28;20483;-65
2022/03/21 11:40:51;;;;;;;0.50;0.10;;;;;;;24.43;45.77;104109.41;5093441;28;20040;-67
2022/03/21 11:43:17;;;;;;;0.20;0.20;;;;;;;24.44;45.23;104108.41;5093195;28;20035;-65
2022/03/21 11:45:47;;;;;;;0.10;0.10;;;;;;;24.43;46.26;104107.53;5093397;28;20028;-66
2022/03/21 11:48:18;;;;;;;0.50;0.15;;;;;;;24.45;45.05;104102.75;5092975;28;20027;-66
2022/03/21 11:50:48;;;;;;;0.85;0.22;;;;;;;24.45;44.90;104099.16;5093171;28;20023;-65
2022/03/21 11:53:15;;;;;;;0.45;0.10;;;;;;;24.48;46.55;104098.88;5091570;28;20027;-66